Terminal Aerodrome Forecast
Issued by NWS

Home | Current Version | Previous Version | Text Only | Print | Product List | Glossary Off
Versions: 1 2 3 4 5 6 7 8 9 10 11 12 13 14 15 16

000
FTUS43 KIWX 182220 AAA
TAFSBN
TAF AMD
KSBN 182220Z 1822/1918 03008KT P6SM BKN015 OVC025
     FM190200 35010KT 4SM -SN BR OVC006
     FM190900 34011KT P6SM OVC012
     FM191300 35012KT P6SM SCT050 BKN200=

USA.gov is the U.S. government's official web portal to all federal, state and local government web resources and services.